Blackfalds, Canada
Current Conditions -  °F | °C
As of 5:00 PM on Monday 24 Nov 2014 (Local Time) from CYQF Reporting Station
Overcast Overcast  
Wind Chill: 22°   Ceiling: 14000
Heat Index: 32°   Visibility: 15mi
Dew Point: 25°   Wind: 14mph
Humidity: 75%   Direction: 160°SSE
Pressure: 29.8"   Gusts: 21mph
Location:  52.38°N, 113.8°W
Report Text: CYQF 250000Z 16012G18KT 15SM FEW100 OVC140 M00/M04 A2980 RMK AC1AC7 SLP132
Loading
Personal Weather Stations






























Interactive Weather Map New forecast layout! Learn more

10-Day Weather Forecast

Advertisements
Track Severe Weather on mobile